createdAt,value
2023-04-27T00:02:20.423Z,71.69
2023-04-27T00:04:48.255Z,71.69
2023-04-27T00:07:15.890Z,71.91
2023-04-27T00:09:42.984Z,71.29
2023-04-27T00:12:10.277Z,71.41
2023-04-27T00:14:37.262Z,71.68
2023-04-27T00:17:05.775Z,71.77
2023-04-27T00:19:32.830Z,71.08
2023-04-27T00:22:00.631Z,71.28
2023-04-27T00:24:27.724Z,71.02
2023-04-27T00:26:55.098Z,71.45
2023-04-27T00:29:22.444Z,71.58
2023-04-27T00:31:50.025Z,71.26
2023-04-27T00:34:19.721Z,71.17
2023-04-27T00:36:47.131Z,71.27
2023-04-27T00:39:14.349Z,71.57
2023-04-27T00:41:41.902Z,71.43
2023-04-27T00:44:08.998Z,70.95
2023-04-27T00:46:37.126Z,70.98
2023-04-27T00:49:07.628Z,71.04
2023-04-27T00:51:35.584Z,70.93
2023-04-27T00:54:02.747Z,71.28
2023-04-27T00:56:30.204Z,71.33
2023-04-27T00:58:57.226Z,71.02
2023-04-27T01:01:24.602Z,71.06
2023-04-27T01:03:51.917Z,71.12
2023-04-27T01:06:19.567Z,71.17
2023-04-27T01:08:47.097Z,70.81
2023-04-27T01:11:14.556Z,70.78
2023-04-27T01:13:41.754Z,71.01
2023-04-27T01:16:09.206Z,70.62
2023-04-27T01:18:36.301Z,70.58
2023-04-27T01:21:06.663Z,70.94
2023-04-27T01:23:34.640Z,70.77
2023-04-27T01:26:02.977Z,71.05
2023-04-27T01:28:30.202Z,70.92
2023-04-27T01:30:57.523Z,70.98
2023-04-27T01:33:24.640Z,70.92
2023-04-27T01:35:52.645Z,70.46
2023-04-27T01:38:19.616Z,70.53
2023-04-27T01:40:46.912Z,70.52
2023-04-27T01:43:14.455Z,70.60
2023-04-27T01:45:41.845Z,70.68
2023-04-27T01:48:08.920Z,70.82
2023-04-27T01:50:36.465Z,71.14
2023-04-27T01:53:03.656Z,71.21
2023-04-27T01:55:31.245Z,70.75
2023-04-27T01:57:58.986Z,70.91
2023-04-27T02:00:26.371Z,71.29
2023-04-27T02:02:55.530Z,71.20
2023-04-27T02:05:24.093Z,71.29
2023-04-27T02:07:51.301Z,71.58
2023-04-27T02:10:18.855Z,71.36
2023-04-27T02:12:45.971Z,71.34
2023-04-27T02:15:13.312Z,71.65
2023-04-27T02:17:41.382Z,71.92
2023-04-27T02:20:10.936Z,71.68
2023-04-27T02:22:44.565Z,71.51
2023-04-27T02:25:12.466Z,71.53
2023-04-27T02:27:40.962Z,71.92
2023-04-27T02:30:11.044Z,71.94
2023-04-27T02:32:39.071Z,71.76
2023-04-27T02:35:08.123Z,72.17
2023-04-27T02:37:35.557Z,71.82
2023-04-27T02:40:04.479Z,72.53
2023-04-27T02:42:31.953Z,72.36
2023-04-27T02:44:59.414Z,72.63
2023-04-27T02:47:27.453Z,72.11
2023-04-27T02:49:54.864Z,72.17
2023-04-27T02:52:22.026Z,72.05
2023-04-27T02:54:49.392Z,72.70
2023-04-27T02:57:16.471Z,72.35
2023-04-27T02:59:43.810Z,72.66
2023-04-27T03:02:10.893Z,72.69
2023-04-27T03:04:38.548Z,72.65
2023-04-27T03:07:05.793Z,72.46
2023-04-27T03:09:33.390Z,72.58
2023-04-27T03:12:00.638Z,72.58
2023-04-27T03:14:28.691Z,72.75
2023-04-27T03:16:57.472Z,72.57
2023-04-27T03:19:24.885Z,72.97
2023-04-27T03:21:51.936Z,72.45
2023-04-27T03:24:19.394Z,72.56
2023-04-27T03:26:46.637Z,72.68
2023-04-27T03:29:14.286Z,72.77
2023-04-27T03:31:41.553Z,72.64
2023-04-27T03:34:09.046Z,72.95
2023-04-27T03:36:36.117Z,72.38
2023-04-27T03:39:03.838Z,72.58
2023-04-27T03:41:30.884Z,70.78
2023-04-27T03:43:58.761Z,70.71
2023-04-27T03:46:26.400Z,70.52
2023-04-27T03:49:01.771Z,70.94
2023-04-27T03:51:34.332Z,71.06
2023-04-27T03:54:01.734Z,71.47
2023-04-27T03:56:28.799Z,71.63
2023-04-27T03:58:56.198Z,71.77
2023-04-27T04:01:27.048Z,71.91
2023-04-27T04:04:09.327Z,72.11
2023-04-27T04:06:51.294Z,72.42
2023-04-27T04:09:19.167Z,71.95
2023-04-27T04:11:46.375Z,70.87
2023-04-27T04:14:18.839Z,70.54
2023-04-27T04:16:47.841Z,70.20
2023-04-27T04:19:17.066Z,70.67
2023-04-27T04:21:44.324Z,70.30
2023-04-27T04:24:16.935Z,69.64
2023-04-27T04:26:49.712Z,66.45
2023-04-27T04:29:17.336Z,66.75
2023-04-27T04:31:44.445Z,65.39
2023-04-27T04:34:12.165Z,63.89
2023-04-27T04:36:39.575Z,63.42
2023-04-27T04:39:08.956Z,62.45
2023-04-27T04:41:37.298Z,61.68
2023-04-27T04:44:05.589Z,60.55
2023-04-27T04:46:33.751Z,60.10
2023-04-27T04:49:02.602Z,59.50
2023-04-27T04:51:32.093Z,59.40
2023-04-27T04:54:16.051Z,58.30
2023-04-27T04:56:43.896Z,56.83
2023-04-27T04:59:17.098Z,56.85
2023-04-27T05:02:00.003Z,56.20
2023-04-27T05:04:27.930Z,55.17
2023-04-27T05:06:54.986Z,55.79
2023-04-27T05:09:24.132Z,55.26
2023-04-27T05:11:54.110Z,54.18
2023-04-27T05:14:23.640Z,55.39
2023-04-27T05:16:51.728Z,55.03
2023-04-27T05:19:20.800Z,55.32
2023-04-27T05:21:47.782Z,54.72
2023-04-27T05:24:15.338Z,53.25
2023-04-27T05:26:43.308Z,54.25
2023-04-27T05:29:29.234Z,55.59
2023-04-27T05:31:57.598Z,56.93
2023-04-27T05:34:24.681Z,57.64
2023-04-27T05:36:52.094Z,58.11
2023-04-27T05:39:19.153Z,58.81
2023-04-27T05:41:46.658Z,59.01
2023-04-27T05:44:14.256Z,59.44
2023-04-27T05:46:41.656Z,60.06
2023-04-27T05:49:08.818Z,60.06
2023-04-27T05:51:38.485Z,60.14
2023-04-27T05:54:05.677Z,59.50
2023-04-27T05:56:33.122Z,60.14
2023-04-27T06:01:42.966Z,59.55
2023-04-27T06:04:11.889Z,59.44
2023-04-27T06:06:41.860Z,58.57
2023-04-27T06:09:08.862Z,58.56
2023-04-27T06:11:36.306Z,58.56
2023-04-27T06:14:04.222Z,58.85
2023-04-27T06:16:36.737Z,58.67
2023-04-27T06:19:09.145Z,58.45
2023-04-27T06:21:37.005Z,58.33
2023-04-27T06:24:04.102Z,57.76
2023-04-27T06:26:39.827Z,58.10
2023-04-27T06:29:21.753Z,58.54
2023-04-27T06:31:49.947Z,58.15
2023-04-27T06:34:17.511Z,57.82
2023-04-27T06:36:47.506Z,57.81
2023-04-27T06:39:23.785Z,58.16
2023-04-27T06:44:37.645Z,57.58
2023-04-27T06:47:05.330Z,56.95
2023-04-27T06:49:32.504Z,57.15
2023-04-27T06:52:03.882Z,56.16
2023-04-27T06:54:38.601Z,56.41
2023-04-27T06:57:06.957Z,56.19
2023-04-27T06:59:39.137Z,56.54
2023-04-27T07:02:08.622Z,56.41
2023-04-27T07:04:36.836Z,56.95
2023-04-27T07:07:04.460Z,56.60
2023-04-27T07:09:31.851Z,56.25
2023-04-27T07:12:01.875Z,56.09
2023-04-27T07:14:29.577Z,55.78
2023-04-27T07:16:56.966Z,56.26
2023-04-27T07:19:24.096Z,55.95
2023-04-27T07:21:52.104Z,56.16
2023-04-27T07:24:30.487Z,55.59
2023-04-27T07:27:01.117Z,55.92
2023-04-27T07:32:25.611Z,56.52
2023-04-27T07:34:54.419Z,56.61
2023-04-27T07:37:24.342Z,56.47
2023-04-27T07:40:17.185Z,55.38
2023-04-27T07:42:48.624Z,55.03
2023-04-27T07:45:41.943Z,54.51
2023-04-27T07:48:10.014Z,55.00
2023-04-27T07:50:38.162Z,54.84
2023-04-27T07:53:08.565Z,54.92
2023-04-27T07:55:44.053Z,53.43
2023-04-27T07:58:14.083Z,53.00
2023-04-27T08:00:41.014Z,52.78
2023-04-27T08:03:09.388Z,53.44
2023-04-27T08:05:36.882Z,53.27
2023-04-27T08:08:04.876Z,52.13
2023-04-27T08:10:32.232Z,52.13
2023-04-27T08:12:59.705Z,50.65
2023-04-27T08:15:27.217Z,50.56
2023-04-27T08:17:54.531Z,49.46
2023-04-27T08:20:21.866Z,50.15
2023-04-27T08:22:51.525Z,50.07
2023-04-27T08:25:18.781Z,50.57
2023-04-27T08:27:46.382Z,51.22
2023-04-27T08:30:15.218Z,51.79
2023-04-27T08:32:45.693Z,52.00
2023-04-27T08:35:13.461Z,50.14
2023-04-27T08:37:41.879Z,49.90
2023-04-27T08:40:10.068Z,50.37
2023-04-27T08:42:40.651Z,49.20
2023-04-27T08:45:09.144Z,48.98
2023-04-27T08:47:43.176Z,49.67
2023-04-27T08:50:13.471Z,50.02
2023-04-27T08:52:48.486Z,50.61
2023-04-27T08:55:18.113Z,49.60
2023-04-27T08:58:06.683Z,49.32
2023-04-27T09:00:41.536Z,49.39
2023-04-27T09:06:08.686Z,49.14
2023-04-27T09:08:49.526Z,49.30
2023-04-27T09:11:38.266Z,49.69
2023-04-27T09:14:19.822Z,49.67
2023-04-27T09:16:59.528Z,49.98
2023-04-27T09:19:28.695Z,50.04
2023-04-27T09:22:05.083Z,50.71
2023-04-27T09:24:33.830Z,50.71
2023-04-27T09:27:01.982Z,50.16
2023-04-27T09:32:29.813Z,50.67
2023-04-27T09:35:01.162Z,50.43
2023-04-27T09:37:30.046Z,50.42
2023-04-27T09:39:57.422Z,50.38
2023-04-27T09:42:24.953Z,50.75
2023-04-27T09:44:55.711Z,51.14
2023-04-27T09:47:31.950Z,51.44
2023-04-27T09:50:01.690Z,51.66
2023-04-27T09:52:29.174Z,51.15
2023-04-27T09:54:58.560Z,50.31
2023-04-27T09:57:36.722Z,50.98
2023-04-27T10:00:17.348Z,50.54
2023-04-27T10:02:59.991Z,50.97
2023-04-27T10:05:38.287Z,51.25
2023-04-27T10:08:06.885Z,51.41
2023-04-27T10:10:44.039Z,52.13
2023-04-27T10:13:22.379Z,51.64
2023-04-27T10:15:49.779Z,51.32
2023-04-27T10:18:29.113Z,51.45
2023-04-27T10:20:56.450Z,51.97
2023-04-27T10:23:27.593Z,51.65
2023-04-27T10:25:57.426Z,51.69
2023-04-27T10:28:26.283Z,51.54
2023-04-27T10:30:53.371Z,51.46
2023-04-27T10:33:22.865Z,51.85
2023-04-27T10:36:00.677Z,51.63
2023-04-27T10:38:33.202Z,50.70
2023-04-27T10:41:34.628Z,50.30
2023-04-27T10:47:38.702Z,50.64
2023-04-27T10:50:07.948Z,50.74
2023-04-27T10:52:34.922Z,50.83
2023-04-27T10:55:22.793Z,50.62
2023-04-27T10:57:54.712Z,50.62
2023-04-27T11:00:27.536Z,49.61
2023-04-27T11:02:56.265Z,49.28
2023-04-27T11:05:30.029Z,49.01
2023-04-27T11:08:08.469Z,49.46
2023-04-27T11:10:39.350Z,49.48
2023-04-27T11:13:15.579Z,48.97
2023-04-27T11:15:51.825Z,48.75
2023-04-27T11:18:20.917Z,49.26
2023-04-27T11:20:57.625Z,48.50
2023-04-27T11:23:27.051Z,49.13
2023-04-27T11:25:56.016Z,48.62
2023-04-27T11:28:24.517Z,48.29
2023-04-27T11:30:58.721Z,48.93
2023-04-27T11:33:26.557Z,49.55
2023-04-27T11:35:54.109Z,48.98
2023-04-27T11:38:22.870Z,49.20
2023-04-27T11:41:05.342Z,48.44
2023-04-27T11:43:33.151Z,48.31
2023-04-27T11:46:06.530Z,48.49
2023-04-27T11:51:29.486Z,48.62
2023-04-27T11:54:15.765Z,49.07
2023-04-27T11:56:46.590Z,49.41
2023-04-27T12:02:22.914Z,48.81
2023-04-27T12:04:51.090Z,48.99
2023-04-27T12:07:29.454Z,49.27
2023-04-27T12:09:59.486Z,49.84
2023-04-27T12:12:46.949Z,49.97
2023-04-27T12:20:44.664Z,49.85
2023-04-27T12:23:28.884Z,49.93
2023-04-27T12:25:57.787Z,49.64
2023-04-27T12:28:39.963Z,49.02
2023-04-27T12:31:08.544Z,48.59
2023-04-27T12:33:36.348Z,49.43
2023-04-27T12:36:03.993Z,48.82
2023-04-27T12:38:31.015Z,48.32
2023-04-27T12:41:02.201Z,48.58
2023-04-27T12:43:29.218Z,49.10
2023-04-27T12:45:57.012Z,48.72
2023-04-27T12:48:25.576Z,48.29
2023-04-27T12:50:53.159Z,47.22
2023-04-27T12:53:21.832Z,47.95
2023-04-27T12:55:49.370Z,48.04
2023-04-27T12:58:16.456Z,48.17
2023-04-27T13:00:43.916Z,48.34
2023-04-27T13:03:11.355Z,48.58
2023-04-27T13:05:38.929Z,49.35
2023-04-27T13:08:06.056Z,48.75
2023-04-27T13:10:34.491Z,49.68
2023-04-27T13:13:03.465Z,49.24
2023-04-27T13:15:32.234Z,48.64
2023-04-27T13:17:59.961Z,48.77
2023-04-27T13:20:26.942Z,48.39
2023-04-27T13:22:54.648Z,48.66
2023-04-27T13:25:21.876Z,47.48
2023-04-27T13:27:50.235Z,47.07
2023-04-27T13:30:17.430Z,47.12
2023-04-27T13:32:44.929Z,47.11
2023-04-27T13:35:12.433Z,46.93
2023-04-27T13:37:46.748Z,47.46
2023-04-27T13:40:23.662Z,47.33
2023-04-27T13:42:52.202Z,47.79
2023-04-27T13:45:19.372Z,47.90
2023-04-27T13:47:47.178Z,47.26
2023-04-27T13:50:14.529Z,47.73
2023-04-27T13:52:42.024Z,48.19
2023-04-27T13:55:11.237Z,48.07
2023-04-27T13:57:46.467Z,48.69
2023-04-27T14:00:15.764Z,48.19
2023-04-27T14:03:00.647Z,48.48
2023-04-27T14:05:29.190Z,48.75
2023-04-27T14:07:56.380Z,49.42
2023-04-27T14:10:24.160Z,49.22
2023-04-27T14:12:51.280Z,49.81
2023-04-27T14:15:18.739Z,49.33
2023-04-27T14:17:52.425Z,49.72
2023-04-27T14:20:19.776Z,49.40
2023-04-27T14:22:46.913Z,48.73
2023-04-27T14:28:03.409Z,48.36
2023-04-27T14:30:35.252Z,49.00
2023-04-27T14:33:03.090Z,48.85
2023-04-27T14:35:34.522Z,49.22
2023-04-27T14:38:15.264Z,49.53
2023-04-27T14:40:42.719Z,49.39
2023-04-27T14:43:20.739Z,48.97
2023-04-27T14:45:52.865Z,49.56
2023-04-27T14:48:23.544Z,50.00
2023-04-27T14:50:52.797Z,49.66
2023-04-27T14:53:19.808Z,50.30
2023-04-27T14:55:47.525Z,50.57
2023-04-27T14:58:15.597Z,50.60
2023-04-27T15:00:43.562Z,50.39
2023-04-27T15:03:11.071Z,50.41
2023-04-27T15:05:39.561Z,50.44
2023-04-27T15:08:06.615Z,51.06
2023-04-27T15:10:34.051Z,50.41
2023-04-27T15:13:02.700Z,50.48
2023-04-27T15:15:30.222Z,50.86
2023-04-27T15:17:57.477Z,50.42
2023-04-27T15:20:24.903Z,50.83
2023-04-27T15:22:52.486Z,50.56
2023-04-27T15:25:20.008Z,50.78
2023-04-27T15:27:47.174Z,51.18
2023-04-27T15:30:20.094Z,50.80
2023-04-27T15:32:48.248Z,50.99
2023-04-27T15:35:17.048Z,50.60
2023-04-27T15:37:44.346Z,50.58
2023-04-27T15:43:00.070Z,50.14
2023-04-27T15:45:29.284Z,50.21
2023-04-27T15:47:56.496Z,50.22
2023-04-27T15:50:25.500Z,50.79
2023-04-27T15:52:53.259Z,50.80
2023-04-27T15:55:24.724Z,50.51
2023-04-27T15:57:53.745Z,50.62
2023-04-27T16:00:25.165Z,50.21
2023-04-27T16:02:53.473Z,50.35
2023-04-27T16:08:04.326Z,50.61
2023-04-27T16:13:13.431Z,50.74
2023-04-27T16:15:42.004Z,50.76
2023-04-27T16:18:09.554Z,50.74
2023-04-27T16:20:37.305Z,50.65
2023-04-27T16:23:04.823Z,51.09
2023-04-27T16:25:32.277Z,51.29
2023-04-27T16:27:59.890Z,51.08
2023-04-27T16:30:27.803Z,51.27
2023-04-27T16:32:55.626Z,50.99
2023-04-27T16:35:23.422Z,50.85
2023-04-27T16:37:50.833Z,51.25
2023-04-27T16:40:18.423Z,50.92
2023-04-27T16:42:45.601Z,51.51
2023-04-27T16:45:13.168Z,51.30
2023-04-27T16:47:41.241Z,51.02
2023-04-27T16:50:09.144Z,51.23
2023-04-27T16:52:37.732Z,50.83
2023-04-27T16:55:06.082Z,51.29
2023-04-27T16:57:33.232Z,51.10
2023-04-27T17:00:06.265Z,51.42
2023-04-27T17:02:35.065Z,51.26
2023-04-27T17:05:03.457Z,51.52
2023-04-27T17:07:32.982Z,51.52
2023-04-27T17:10:01.567Z,50.83
2023-04-27T17:12:28.595Z,50.35
2023-04-27T17:14:56.495Z,50.13
2023-04-27T17:17:24.951Z,50.02
2023-04-27T17:22:42.436Z,49.55
2023-04-27T17:25:23.888Z,49.93
2023-04-27T17:27:50.977Z,49.92
2023-04-27T17:30:19.047Z,49.33
2023-04-27T17:32:46.206Z,49.36
2023-04-27T17:35:13.623Z,49.03
2023-04-27T17:37:40.830Z,49.38
2023-04-27T17:40:27.036Z,48.86
2023-04-27T17:42:56.681Z,48.42
2023-04-27T17:45:27.680Z,48.64
2023-04-27T17:48:02.599Z,48.46
2023-04-27T17:50:33.954Z,48.24
2023-04-27T17:53:04.093Z,48.18
2023-04-27T17:55:32.008Z,48.87
2023-04-27T17:57:59.876Z,48.32
2023-04-27T18:00:27.475Z,48.04
2023-04-27T18:02:56.536Z,48.37
2023-04-27T18:05:24.104Z,47.96
2023-04-27T18:07:51.688Z,47.92
2023-04-27T18:10:19.309Z,48.06
2023-04-27T18:12:48.516Z,48.41
2023-04-27T18:15:16.248Z,48.50
2023-04-27T18:17:46.127Z,48.58
2023-04-27T18:20:15.389Z,48.34
2023-04-27T18:22:45.274Z,48.32
2023-04-27T18:25:23.851Z,48.48
2023-04-27T18:27:55.440Z,47.93
2023-04-27T18:30:23.283Z,48.27
2023-04-27T18:32:52.666Z,48.23
2023-04-27T18:35:21.349Z,48.24
2023-04-27T18:38:17.040Z,48.18
2023-04-27T18:40:44.965Z,48.10
2023-04-27T18:43:12.028Z,48.06
2023-04-27T18:45:39.417Z,48.03
2023-04-27T18:48:07.008Z,47.96
2023-04-27T18:50:45.509Z,48.01
2023-04-27T18:53:14.296Z,48.11
2023-04-27T18:55:42.522Z,47.65
2023-04-27T18:58:10.955Z,47.50
2023-04-27T19:00:38.664Z,47.10
2023-04-27T19:03:15.335Z,47.19
2023-04-27T19:05:43.363Z,47.53
2023-04-27T19:08:10.748Z,47.21
2023-04-27T19:10:41.393Z,47.52
2023-04-27T19:13:08.918Z,47.13
2023-04-27T19:15:36.576Z,47.08
2023-04-27T19:18:10.537Z,46.96
2023-04-27T19:20:42.936Z,47.35
2023-04-27T19:23:13.389Z,47.03
2023-04-27T19:25:43.883Z,46.99
2023-04-27T19:28:13.834Z,46.64
2023-04-27T19:30:41.400Z,47.00
2023-04-27T19:33:08.546Z,47.04
2023-04-27T19:35:36.404Z,47.17
2023-04-27T19:38:04.064Z,46.75
2023-04-27T19:40:32.914Z,46.38
2023-04-27T19:43:21.322Z,46.57
2023-04-27T19:46:13.081Z,46.48
2023-04-27T19:51:27.858Z,46.78
2023-04-27T19:53:57.466Z,46.23
2023-04-27T19:56:24.998Z,46.30
2023-04-27T19:58:53.234Z,45.82
2023-04-27T20:01:22.999Z,46.26
2023-04-27T20:03:53.770Z,46.11
2023-04-27T20:06:23.390Z,46.26
2023-04-27T20:08:54.920Z,46.17
2023-04-27T20:11:22.316Z,46.14
2023-04-27T20:13:49.577Z,46.43
2023-04-27T20:16:18.442Z,46.10
2023-04-27T20:18:45.575Z,46.06
2023-04-27T20:21:13.014Z,46.95
2023-04-27T20:23:40.412Z,46.67
2023-04-27T20:26:07.670Z,46.48
2023-04-27T20:28:38.234Z,46.77
2023-04-27T20:31:07.726Z,46.45
2023-04-27T20:33:44.865Z,46.82
2023-04-27T20:36:18.207Z,47.02
2023-04-27T20:38:46.832Z,46.21
2023-04-27T20:41:14.484Z,46.94
2023-04-27T20:43:41.602Z,46.88
2023-04-27T20:46:11.212Z,46.59
2023-04-27T20:48:38.389Z,46.65
2023-04-27T20:51:08.894Z,46.33
2023-04-27T20:53:35.919Z,46.10
2023-04-27T20:56:03.983Z,46.33
2023-04-27T20:58:31.233Z,46.44
2023-04-27T21:01:01.601Z,46.42
2023-04-27T21:03:43.203Z,46.20
2023-04-27T21:06:10.867Z,46.32
2023-04-27T21:08:41.484Z,46.19
2023-04-27T21:11:09.923Z,46.35
2023-04-27T21:13:36.920Z,46.23
2023-04-27T21:16:04.440Z,46.77
2023-04-27T21:18:31.681Z,46.59
2023-04-27T21:20:59.330Z,46.52
2023-04-27T21:23:28.471Z,46.44
2023-04-27T21:25:56.579Z,46.61
2023-04-27T21:28:23.636Z,46.78
2023-04-27T21:30:51.272Z,46.53
2023-04-27T21:33:18.458Z,47.03
2023-04-27T21:35:45.876Z,47.02
2023-04-27T21:38:12.893Z,47.22
2023-04-27T21:40:40.268Z,46.93
2023-04-27T21:43:08.120Z,47.46
2023-04-27T21:45:36.214Z,47.12
2023-04-27T21:48:04.778Z,47.23
2023-04-27T21:50:33.957Z,47.37
2023-04-27T21:53:16.758Z,47.59
2023-04-27T21:55:46.189Z,47.97
2023-04-27T21:58:17.813Z,47.68
2023-04-27T22:00:54.409Z,47.87
2023-04-27T22:03:31.310Z,47.84
2023-04-27T22:05:59.479Z,48.06
2023-04-27T22:08:26.779Z,48.78
2023-04-27T22:10:54.268Z,48.52
2023-04-27T22:16:04.389Z,48.75
2023-04-27T22:18:31.556Z,49.07
2023-04-27T22:20:59.025Z,49.20
2023-04-27T22:23:26.486Z,49.33
2023-04-27T22:25:53.908Z,49.33
2023-04-27T22:28:21.085Z,49.21
2023-04-27T22:30:48.723Z,49.45
2023-04-27T22:33:16.798Z,49.34
2023-04-27T22:35:44.970Z,49.55
2023-04-27T22:38:12.036Z,49.69
2023-04-27T22:40:39.569Z,49.50
2023-04-27T22:43:06.581Z,49.62
2023-04-27T22:45:34.500Z,49.77
2023-04-27T22:48:02.795Z,50.05
2023-04-27T22:50:30.193Z,50.23
2023-04-27T22:52:57.189Z,49.99
2023-04-27T22:55:32.835Z,50.36
2023-04-27T22:58:00.651Z,50.38
2023-04-27T23:00:43.077Z,50.78
2023-04-27T23:03:11.859Z,50.49
2023-04-27T23:05:39.042Z,50.85
2023-04-27T23:08:06.934Z,50.67
2023-04-27T23:10:34.919Z,51.07
2023-04-27T23:13:03.385Z,50.89
2023-04-27T23:15:30.403Z,50.94
2023-04-27T23:17:57.880Z,51.10
2023-04-27T23:20:28.757Z,51.12
2023-04-27T23:22:56.948Z,51.28
2023-04-27T23:25:24.375Z,51.09
2023-04-27T23:27:52.767Z,51.48
2023-04-27T23:30:22.585Z,51.94
2023-04-27T23:32:50.519Z,51.78
2023-04-27T23:35:18.880Z,51.91
2023-04-27T23:37:46.499Z,51.82
2023-04-27T23:40:14.147Z,51.65
2023-04-27T23:42:41.625Z,51.58
2023-04-27T23:45:09.192Z,51.29
2023-04-27T23:47:37.144Z,51.31
2023-04-27T23:50:04.870Z,51.35
2023-04-27T23:52:32.269Z,51.30
2023-04-27T23:54:59.214Z,51.44
2023-04-27T23:57:26.551Z,51.34
2023-04-27T23:59:53.600Z,51.34
